Time;durP1;ratioP1;P1;durP2;ratioP2;P2;SDS_P1;SDS_P2;PMS_P1;PMS_P2;Temp;Humidity;BMP_temperature;BMP_pressure;BME280_temperature;BME280_humidity;BME280_pressure;Samples;Min_cycle;Max_cycle;Signal;HPM_P1;HPM_P2
2024/01/30 00:01:26;;;;;;;19.48;8.05;;;8.30;99.90;;;;;;5055687;28;20090;-63
2024/01/30 00:03:52;;;;;;;16.42;7.30;;;8.30;99.90;;;;;;5064893;28;20083;-63
2024/01/30 00:06:21;;;;;;;18.70;6.90;;;8.30;99.90;;;;;;5062666;28;20029;-63
2024/01/30 00:08:48;;;;;;;16.98;7.80;;;8.30;99.90;;;;;;5062707;28;20032;-63
2024/01/30 00:11:15;;;;;;;15.75;7.78;;;8.30;99.90;;;;;;5062382;28;20051;-61
2024/01/30 00:13:40;;;;;;;16.15;7.00;;;8.30;99.90;;;;;;5056495;28;20124;-61
2024/01/30 00:16:07;;;;;;;16.83;8.05;;;8.30;99.90;;;;;;5060299;28;20112;-61
2024/01/30 00:18:32;;;;;;;15.13;7.63;;;8.30;99.90;;;;;;5062251;28;20037;-61
2024/01/30 00:20:59;;;;;;;16.52;7.50;;;8.20;99.90;;;;;;5056323;28;20392;-63
2024/01/30 00:23:25;;;;;;;18.52;7.35;;;8.20;99.90;;;;;;5062929;28;20028;-63
2024/01/30 00:25:51;;;;;;;18.00;8.23;;;8.20;99.90;;;;;;5057681;28;20380;-63
2024/01/30 00:28:16;;;;;;;16.50;7.95;;;8.20;99.90;;;;;;5059009;28;20493;-62
2024/01/30 00:30:42;;;;;;;15.25;6.28;;;8.20;99.90;;;;;;5057243;28;20025;-64
2024/01/30 00:33:09;;;;;;;17.38;8.30;;;8.10;99.90;;;;;;5059777;28;20032;-63
2024/01/30 00:35:34;;;;;;;17.15;8.38;;;8.20;99.90;;;;;;5061183;28;20366;-64
2024/01/30 00:38:00;;;;;;;18.35;7.90;;;8.10;99.90;;;;;;5062583;28;20032;-63
2024/01/30 00:40:26;;;;;;;18.73;8.52;;;7.90;99.90;;;;;;5061002;28;20028;-64
2024/01/30 00:42:52;;;;;;;21.38;7.50;;;8.10;99.90;;;;;;5064952;28;20078;-64
2024/01/30 00:45:17;;;;;;;16.83;7.57;;;8.00;99.90;;;;;;5062026;28;20054;-63
2024/01/30 00:47:44;;;;;;;16.08;7.72;;;8.10;99.90;;;;;;5060453;28;20105;-63
2024/01/30 00:50:11;;;;;;;14.68;7.40;;;8.10;99.90;;;;;;5060856;28;20021;-63
2024/01/30 00:52:36;;;;;;;18.23;8.45;;;8.10;99.90;;;;;;5058377;28;20174;-63
2024/01/30 00:55:02;;;;;;;19.17;7.90;;;8.00;99.90;;;;;;5060199;28;20101;-63
2024/01/30 00:57:28;;;;;;;18.55;8.52;;;8.00;99.90;;;;;;5061984;28;20043;-63
2024/01/30 00:59:54;;;;;;;17.23;8.60;;;7.90;99.90;;;;;;5061969;28;20021;-63
2024/01/30 01:02:20;;;;;;;19.00;8.05;;;7.90;99.90;;;;;;5057986;28;20361;-63
2024/01/30 01:04:46;;;;;;;14.68;7.07;;;8.00;99.90;;;;;;5060819;28;20025;-63
2024/01/30 01:07:11;;;;;;;16.23;7.88;;;7.90;99.90;;;;;;5057470;28;20029;-63
2024/01/30 01:09:37;;;;;;;16.63;8.32;;;7.90;99.90;;;;;;5059257;28;20070;-63
2024/01/30 01:12:03;;;;;;;18.27;7.60;;;7.90;99.90;;;;;;5058512;28;20052;-63
2024/01/30 01:14:29;;;;;;;18.48;7.75;;;7.90;99.90;;;;;;5059529;28;20549;-64
2024/01/30 01:16:55;;;;;;;15.85;7.80;;;7.90;99.90;;;;;;5057529;28;20036;-64
2024/01/30 01:19:21;;;;;;;15.13;6.82;;;7.90;99.90;;;;;;5056334;28;20051;-63
2024/01/30 01:21:46;;;;;;;20.13;7.90;;;7.90;99.90;;;;;;5061077;28;20113;-64
2024/01/30 01:24:12;;;;;;;18.15;7.47;;;8.00;99.90;;;;;;5058502;28;20477;-63
2024/01/30 01:26:38;;;;;;;19.95;8.23;;;8.00;99.90;;;;;;5059419;28;20379;-63
2024/01/30 01:29:09;;;;;;;17.08;8.25;;;8.00;99.90;;;;;;5064239;28;20028;-62
2024/01/30 01:31:39;;;;;;;17.45;7.57;;;8.00;99.90;;;;;;5056419;28;20036;-61
2024/01/30 01:34:06;;;;;;;14.35;5.88;;;8.00;99.90;;;;;;5057508;28;20036;-62
2024/01/30 01:36:31;;;;;;;19.08;8.50;;;8.00;99.90;;;;;;5059024;28;20116;-61
2024/01/30 01:38:57;;;;;;;17.90;8.18;;;8.00;99.90;;;;;;5064802;28;20100;-62
2024/01/30 01:41:22;;;;;;;19.05;8.82;;;7.90;99.90;;;;;;5064791;28;20095;-62
2024/01/30 01:43:48;;;;;;;17.20;7.97;;;7.90;99.90;;;;;;5064690;28;20032;-61
2024/01/30 01:46:14;;;;;;;15.00;7.40;;;8.00;99.90;;;;;;5065815;28;20021;-61
2024/01/30 01:48:40;;;;;;;17.33;7.90;;;8.00;99.90;;;;;;5067266;28;20100;-61
2024/01/30 01:51:06;;;;;;;16.05;7.65;;;8.00;99.90;;;;;;5060015;28;20048;-61
2024/01/30 01:53:32;;;;;;;19.98;8.55;;;8.00;99.90;;;;;;5064714;28;20040;-61
2024/01/30 01:55:58;;;;;;;14.32;6.97;;;8.00;99.90;;;;;;5058997;28;20044;-61
2024/01/30 01:58:28;;;;;;;16.88;7.97;;;7.90;99.90;;;;;;5064470;28;20771;-62
2024/01/30 02:00:56;;;;;;;21.38;8.10;;;7.80;99.90;;;;;;5062852;28;20027;-61
2024/01/30 02:03:21;;;;;;;15.32;7.35;;;7.90;99.90;;;;;;5061916;28;20106;-61
2024/01/30 02:05:47;;;;;;;17.05;7.60;;;7.90;99.90;;;;;;5065226;28;20078;-62
2024/01/30 02:08:13;;;;;;;18.35;7.85;;;8.00;99.90;;;;;;5061660;28;20052;-62
2024/01/30 02:10:39;;;;;;;15.93;7.53;;;8.00;99.90;;;;;;5068168;28;20113;-62
2024/01/30 02:13:05;;;;;;;16.42;7.60;;;8.00;99.90;;;;;;5064870;28;20057;-62
2024/01/30 02:15:30;;;;;;;18.48;8.35;;;8.00;99.90;;;;;;5064038;28;20552;-62
2024/01/30 02:17:56;;;;;;;20.20;7.75;;;8.00;99.90;;;;;;5061491;28;20526;-62
2024/01/30 02:20:24;;;;;;;17.85;7.82;;;7.90;99.90;;;;;;5061100;28;20025;-61
2024/01/30 02:22:52;;;;;;;17.65;7.45;;;7.90;99.90;;;;;;5068368;28;20025;-62
2024/01/30 02:25:18;;;;;;;14.88;7.45;;;8.00;99.90;;;;;;5065012;28;20068;-61
2024/01/30 02:27:43;;;;;;;17.90;7.85;;;8.00;99.90;;;;;;5061325;28;20460;-62
2024/01/30 02:30:10;;;;;;;16.08;8.30;;;7.90;99.90;;;;;;5053083;28;20037;-61
2024/01/30 02:32:35;;;;;;;17.90;8.00;;;7.90;99.90;;;;;;5052335;28;20028;-61
2024/01/30 02:35:01;;;;;;;15.60;5.97;;;7.90;99.90;;;;;;5069147;28;20079;-62
2024/01/30 02:37:27;;;;;;;13.95;6.00;;;7.90;99.90;;;;;;5062239;28;20025;-62
2024/01/30 02:39:52;;;;;;;20.02;7.90;;;8.00;99.90;;;;;;5059992;28;20021;-64
2024/01/30 02:42:18;;;;;;;17.50;8.45;;;8.00;99.90;;;;;;5064094;28;20084;-63
2024/01/30 02:44:43;;;;;;;17.83;8.65;;;7.90;99.90;;;;;;5060138;28;20464;-63
2024/01/30 02:47:09;;;;;;;18.92;7.72;;;7.90;99.90;;;;;;5064010;28;20368;-63
2024/01/30 02:49:35;;;;;;;19.13;7.75;;;7.90;99.90;;;;;;5064399;28;20111;-63
2024/01/30 02:52:00;;;;;;;15.80;7.45;;;7.80;99.90;;;;;;5062150;28;20029;-63
2024/01/30 02:54:26;;;;;;;16.83;7.70;;;7.90;99.90;;;;;;5064563;28;20025;-64
2024/01/30 02:56:52;;;;;;;17.42;6.82;;;7.80;99.90;;;;;;5061555;28;20070;-63
2024/01/30 02:59:18;;;;;;;19.10;7.03;;;7.80;99.90;;;;;;5063039;28;20032;-63
2024/01/30 03:01:44;;;;;;;14.60;6.28;;;7.80;99.90;;;;;;5059794;28;20029;-64
2024/01/30 03:04:11;;;;;;;17.13;7.30;;;7.80;99.90;;;;;;5064357;28;20025;-63
2024/01/30 03:06:36;;;;;;;17.20;7.65;;;7.80;99.90;;;;;;5060008;28;20017;-63
2024/01/30 03:09:02;;;;;;;14.20;6.93;;;7.80;99.90;;;;;;5063933;28;20146;-63
2024/01/30 03:11:28;;;;;;;16.17;6.95;;;7.90;99.90;;;;;;5061455;28;20097;-63
2024/01/30 03:13:54;;;;;;;19.77;7.65;;;7.90;99.90;;;;;;5065102;28;20028;-63
2024/01/30 03:16:19;;;;;;;16.48;7.20;;;7.90;99.90;;;;;;5061195;28;20090;-63
2024/01/30 03:18:45;;;;;;;18.42;6.95;;;7.90;99.90;;;;;;5061061;28;20033;-63
2024/01/30 03:21:11;;;;;;;13.00;6.30;;;7.90;99.90;;;;;;5059016;28;20056;-63
2024/01/30 03:23:36;;;;;;;17.00;7.85;;;7.90;99.90;;;;;;5060251;28;20075;-64
2024/01/30 03:26:04;;;;;;;17.17;7.25;;;7.90;99.90;;;;;;5063170;28;20021;-63
2024/01/30 03:28:29;;;;;;;19.10;7.70;;;7.90;99.90;;;;;;5058987;28;20032;-63
2024/01/30 03:30:55;;;;;;;13.23;5.85;;;7.90;99.90;;;;;;5062048;28;20025;-63
2024/01/30 03:33:21;;;;;;;13.00;6.00;;;7.90;99.90;;;;;;5061191;28;20028;-63
2024/01/30 03:35:46;;;;;;;16.88;7.30;;;7.90;99.90;;;;;;5058622;28;20032;-63
2024/01/30 03:38:12;;;;;;;13.35;5.40;;;7.90;99.90;;;;;;5061494;28;20071;-64
2024/01/30 03:40:37;;;;;;;14.82;6.90;;;7.90;99.90;;;;;;5058452;28;20025;-63
2024/01/30 03:43:05;;;;;;;18.38;7.35;;;7.90;99.90;;;;;;5067244;28;20028;-63
2024/01/30 03:45:30;;;;;;;16.35;7.38;;;7.90;99.90;;;;;;5059921;28;20374;-63
2024/01/30 03:47:56;;;;;;;14.65;6.88;;;7.90;99.90;;;;;;5070358;28;20089;-63
2024/01/30 03:50:21;;;;;;;12.55;5.85;;;7.80;99.90;;;;;;5057582;28;20032;-62
2024/01/30 03:52:47;;;;;;;16.08;7.07;;;7.80;99.90;;;;;;5060815;28;20040;-62
2024/01/30 03:55:13;;;;;;;16.95;7.13;;;7.90;99.90;;;;;;5057717;28;20178;-62
2024/01/30 03:57:38;;;;;;;13.98;7.32;;;7.90;99.90;;;;;;5064412;28;20039;-61
2024/01/30 04:00:04;;;;;;;17.67;7.70;;;7.90;99.90;;;;;;5061694;28;20021;-62
2024/01/30 04:02:30;;;;;;;17.35;6.82;;;7.90;99.90;;;;;;5060275;28;20158;-62
2024/01/30 04:04:56;;;;;;;15.32;6.85;;;7.90;99.90;;;;;;5061314;28;20119;-62
2024/01/30 04:07:21;;;;;;;14.38;6.85;;;7.80;99.90;;;;;;5059611;28;20464;-62
2024/01/30 04:09:47;;;;;;;15.43;6.60;;;7.80;99.90;;;;;;5059671;28;20856;-62
2024/01/30 04:12:12;;;;;;;15.07;6.80;;;7.80;99.90;;;;;;5059933;28;20040;-62
2024/01/30 04:14:40;;;;;;;14.80;6.60;;;7.80;99.90;;;;;;5054936;28;20025;-62
2024/01/30 04:17:05;;;;;;;16.13;6.57;;;7.80;99.90;;;;;;5061956;28;20021;-62
2024/01/30 04:19:31;;;;;;;19.05;7.40;;;7.80;99.90;;;;;;5056685;28;20512;-62
2024/01/30 04:21:57;;;;;;;17.38;6.78;;;7.70;99.90;;;;;;5061664;28;20048;-62
2024/01/30 04:24:22;;;;;;;16.25;6.85;;;7.70;99.90;;;;;;5059082;28;20024;-63
2024/01/30 04:26:48;;;;;;;14.85;6.72;;;7.70;99.90;;;;;;5060779;28;20447;-63
2024/01/30 04:29:14;;;;;;;17.70;7.00;;;7.70;99.90;;;;;;5057587;28;20040;-62
2024/01/30 04:31:39;;;;;;;13.85;6.57;;;7.80;99.90;;;;;;5062606;28;20033;-62
2024/01/30 04:34:05;;;;;;;14.85;6.70;;;7.70;99.90;;;;;;5062594;28;20033;-62
2024/01/30 04:36:30;;;;;;;15.75;7.00;;;7.70;99.90;;;;;;5057135;28;20368;-62
2024/01/30 04:38:56;;;;;;;14.20;6.57;;;7.70;99.90;;;;;;5058992;28;20032;-62
2024/01/30 04:41:21;;;;;;;17.80;6.40;;;7.80;99.90;;;;;;5060791;28;20083;-62
2024/01/30 04:43:47;;;;;;;13.32;5.90;;;7.80;99.90;;;;;;5064406;28;20077;-62
2024/01/30 04:46:13;;;;;;;14.80;6.97;;;7.80;99.90;;;;;;5061565;28;20028;-62
2024/01/30 04:48:38;;;;;;;13.90;6.18;;;7.80;99.90;;;;;;5064983;28;20024;-62
2024/01/30 04:51:04;;;;;;;15.25;7.43;;;7.80;99.90;;;;;;5055832;28;20029;-62
2024/01/30 04:53:30;;;;;;;15.13;6.47;;;7.70;99.90;;;;;;5061291;28;20032;-62
2024/01/30 04:55:56;;;;;;;14.10;6.30;;;7.70;99.90;;;;;;5058323;28;20027;-62
2024/01/30 04:58:22;;;;;;;14.05;6.53;;;7.60;99.90;;;;;;5061116;28;20028;-62
2024/01/30 05:00:51;;;;;;;16.38;6.55;;;7.70;99.90;;;;;;5058514;28;20529;-63
2024/01/30 05:03:17;;;;;;;14.45;6.05;;;7.80;99.90;;;;;;5060559;28;20035;-62
2024/01/30 05:05:43;;;;;;;19.70;6.47;;;7.70;99.90;;;;;;5056262;28;20123;-62
2024/01/30 05:08:08;;;;;;;16.63;6.80;;;7.70;99.90;;;;;;5056285;28;20142;-62
2024/01/30 05:10:34;;;;;;;15.70;6.65;;;7.70;99.90;;;;;;5061612;28;20036;-63
2024/01/30 05:13:00;;;;;;;12.27;5.25;;;7.80;99.90;;;;;;5062275;28;20051;-63
2024/01/30 05:15:25;;;;;;;15.75;6.35;;;7.80;99.90;;;;;;5057131;28;20031;-62
2024/01/30 05:17:51;;;;;;;17.45;6.70;;;7.80;99.90;;;;;;5062775;28;20082;-63
2024/01/30 05:20:17;;;;;;;14.75;7.30;;;7.90;99.90;;;;;;5057600;28;20442;-62
2024/01/30 05:22:44;;;;;;;16.05;6.95;;;7.90;99.90;;;;;;5059806;28;20039;-63
2024/01/30 05:25:12;;;;;;;18.15;6.63;;;7.90;99.90;;;;;;5060409;28;20021;-63
2024/01/30 05:27:37;;;;;;;14.57;6.68;;;7.80;99.90;;;;;;5059468;28;20050;-63
2024/01/30 05:30:03;;;;;;;12.63;5.75;;;7.80;99.90;;;;;;5058644;28;20407;-63
2024/01/30 05:32:29;;;;;;;14.57;6.45;;;7.80;99.90;;;;;;5056281;28;20496;-63
2024/01/30 05:34:55;;;;;;;16.33;6.40;;;7.90;99.90;;;;;;5062946;28;20064;-63
2024/01/30 05:37:20;;;;;;;13.52;6.03;;;7.80;99.90;;;;;;5055457;28;20126;-62
2024/01/30 05:39:46;;;;;;;12.00;6.07;;;7.80;99.90;;;;;;5061094;28;20086;-63
2024/01/30 05:42:12;;;;;;;13.13;5.90;;;7.80;99.90;;;;;;5064316;28;20069;-63
2024/01/30 05:44:37;;;;;;;13.45;6.18;;;7.90;99.90;;;;;;5064081;28;20035;-63
2024/01/30 05:47:03;;;;;;;15.82;6.30;;;7.80;99.90;;;;;;5061797;28;20133;-63
2024/01/30 05:49:28;;;;;;;12.63;6.13;;;7.80;99.90;;;;;;5060533;28;20033;-62
2024/01/30 05:51:54;;;;;;;14.82;7.18;;;7.90;99.90;;;;;;5066441;28;20024;-67
2024/01/30 05:54:20;;;;;;;14.82;5.72;;;7.90;99.90;;;;;;5059895;28;20071;-63
2024/01/30 05:56:45;;;;;;;13.88;6.05;;;7.80;99.90;;;;;;5052318;28;20037;-63
2024/01/30 05:59:11;;;;;;;14.68;6.93;;;7.90;99.90;;;;;;5057392;28;20029;-63
2024/01/30 06:01:36;;;;;;;15.95;6.40;;;7.90;99.90;;;;;;5053463;28;20400;-63
2024/01/30 06:04:02;;;;;;;13.45;5.57;;;7.90;99.90;;;;;;5056683;28;20029;-63
2024/01/30 06:06:28;;;;;;;15.07;6.20;;;7.90;99.90;;;;;;5059615;28;20051;-63
2024/01/30 06:08:56;;;;;;;14.75;6.53;;;7.90;99.90;;;;;;5058477;28;20028;-63
2024/01/30 06:11:21;;;;;;;13.13;5.80;;;7.90;99.90;;;;;;5058240;28;20045;-64
2024/01/30 06:13:47;;;;;;;14.48;6.15;;;7.80;99.90;;;;;;5064693;28;20029;-64
2024/01/30 06:16:12;;;;;;;12.93;6.55;;;7.70;99.90;;;;;;5063345;28;20115;-64
2024/01/30 06:18:38;;;;;;;16.08;6.43;;;7.60;99.90;;;;;;5061863;28;20027;-64
2024/01/30 06:21:05;;;;;;;13.45;6.05;;;7.60;99.90;;;;;;5060457;28;20029;-64
2024/01/30 06:23:30;;;;;;;16.25;6.38;;;7.60;99.90;;;;;;5064751;28;20108;-64
2024/01/30 06:25:56;;;;;;;11.77;5.40;;;7.50;99.90;;;;;;5068005;28;20111;-64
2024/01/30 06:28:22;;;;;;;12.68;6.28;;;7.50;99.90;;;;;;5065434;28;20039;-64
2024/01/30 06:30:47;;;;;;;17.80;6.72;;;7.60;99.90;;;;;;5069145;28;20024;-64
2024/01/30 06:33:13;;;;;;;12.30;5.72;;;7.70;99.90;;;;;;5070100;28;20857;-64
2024/01/30 06:35:40;;;;;;;16.40;6.35;;;7.80;99.90;;;;;;5065544;28;20060;-64
2024/01/30 06:38:06;;;;;;;14.75;6.30;;;7.70;99.90;;;;;;5059598;28;20484;-64
2024/01/30 06:40:31;;;;;;;15.50;6.35;;;7.80;99.90;;;;;;5061221;28;20608;-64
2024/01/30 06:42:57;;;;;;;12.88;5.85;;;7.80;99.90;;;;;;5065355;28;20036;-64
2024/01/30 06:45:23;;;;;;;15.45;5.55;;;7.80;99.90;;;;;;5063415;28;20040;-63
2024/01/30 06:47:48;;;;;;;15.55;6.50;;;7.80;99.90;;;;;;5063022;28;20391;-61
2024/01/30 06:50:14;;;;;;;13.80;6.10;;;7.80;99.90;;;;;;5067480;28;20062;-62
2024/01/30 06:52:40;;;;;;;15.75;6.53;;;7.80;99.90;;;;;;5062748;28;20423;-61
2024/01/30 06:55:06;;;;;;;12.95;6.28;;;7.80;99.90;;;;;;5064443;28;20040;-62
2024/01/30 06:57:32;;;;;;;15.38;6.28;;;7.90;99.90;;;;;;5056088;28;20567;-62
2024/01/30 06:59:57;;;;;;;14.55;6.13;;;7.80;99.90;;;;;;5056332;28;20096;-62
2024/01/30 07:02:23;;;;;;;15.40;6.55;;;7.90;99.90;;;;;;5054095;28;20020;-62
2024/01/30 07:04:49;;;;;;;13.88;5.88;;;7.90;99.90;;;;;;5066988;28;20039;-62
2024/01/30 07:07:15;;;;;;;13.73;6.00;;;8.00;99.90;;;;;;5064175;28;20016;-61
2024/01/30 07:09:41;;;;;;;16.30;6.78;;;8.00;99.90;;;;;;5063904;28;20025;-61
2024/01/30 07:12:07;;;;;;;16.33;6.60;;;8.00;99.90;;;;;;5064689;28;20090;-63
2024/01/30 07:14:33;;;;;;;13.90;6.53;;;8.00;99.90;;;;;;5061125;28;20044;-63
2024/01/30 07:16:58;;;;;;;18.45;6.45;;;8.00;99.90;;;;;;5066381;28;20664;-63
2024/01/30 07:19:24;;;;;;;17.17;6.60;;;8.00;99.90;;;;;;5054808;28;20025;-63
2024/01/30 07:21:49;;;;;;;12.82;6.03;;;8.00;99.90;;;;;;5059898;28;20035;-63
2024/01/30 07:24:15;;;;;;;13.68;6.25;;;8.00;99.90;;;;;;5063045;28;20029;-63
2024/01/30 07:26:41;;;;;;;13.18;5.70;;;8.10;99.90;;;;;;5060888;28;20017;-62
2024/01/30 07:29:06;;;;;;;14.40;6.35;;;8.20;99.90;;;;;;5058686;28;20484;-62
2024/01/30 07:31:32;;;;;;;12.93;5.90;;;8.20;99.90;;;;;;5059265;28;20447;-63
2024/01/30 07:33:57;;;;;;;12.85;6.53;;;8.30;99.90;;;;;;5060191;28;20025;-63
2024/01/30 07:36:23;;;;;;;14.88;6.20;;;8.30;99.90;;;;;;5057935;28;20028;-63
2024/01/30 07:38:48;;;;;;;15.43;6.50;;;8.30;99.90;;;;;;5060223;28;20155;-63
2024/01/30 07:41:14;;;;;;;15.00;6.15;;;8.40;99.90;;;;;;5056926;28;20029;-62
2024/01/30 07:43:40;;;;;;;14.68;6.25;;;8.50;99.90;;;;;;5060880;28;20770;-62
2024/01/30 07:46:06;;;;;;;15.15;6.75;;;8.40;99.90;;;;;;5065657;28;20024;-63
2024/01/30 07:48:34;;;;;;;14.40;6.13;;;8.50;99.90;;;;;;5064493;28;20024;-63
2024/01/30 07:50:59;;;;;;;16.38;6.38;;;8.40;99.90;;;;;;5062375;28;20032;-63
2024/01/30 07:53:25;;;;;;;12.65;5.97;;;8.40;99.90;;;;;;5062100;28;20035;-62
2024/01/30 07:55:51;;;;;;;15.20;6.18;;;8.40;99.90;;;;;;5059554;28;20024;-62
2024/01/30 07:58:17;;;;;;;13.98;5.82;;;8.40;99.90;;;;;;5060115;28;20147;-62
2024/01/30 08:00:43;;;;;;;12.95;5.80;;;8.60;99.90;;;;;;5059190;28;20391;-61
2024/01/30 08:03:08;;;;;;;14.00;6.07;;;8.50;99.90;;;;;;5057269;28;20074;-61
2024/01/30 08:05:34;;;;;;;12.13;5.75;;;8.50;99.90;;;;;;5058346;28;20074;-62
2024/01/30 08:07:59;;;;;;;14.27;6.53;;;8.60;99.90;;;;;;5056607;28;20373;-62
2024/01/30 08:10:25;;;;;;;15.50;6.55;;;8.60;99.90;;;;;;5059517;28;20035;-63
2024/01/30 08:12:51;;;;;;;14.95;5.75;;;8.60;99.90;;;;;;5058707;28;20103;-61
2024/01/30 08:15:16;;;;;;;12.63;6.22;;;8.60;99.90;;;;;;5061985;28;20028;-63
2024/01/30 08:17:42;;;;;;;17.30;5.85;;;8.70;99.90;;;;;;5053599;28;20086;-62
2024/01/30 08:20:10;;;;;;;13.18;6.00;;;8.80;99.90;;;;;;5059364;28;20099;-63
2024/01/30 08:22:39;;;;;;;13.02;6.00;;;8.90;99.90;;;;;;5065588;28;20028;-64
2024/01/30 08:25:05;;;;;;;13.38;5.60;;;9.10;99.90;;;;;;5057611;28;20021;-63
2024/01/30 08:27:31;;;;;;;13.52;5.50;;;9.20;99.90;;;;;;5059315;28;20027;-63
2024/01/30 08:29:56;;;;;;;15.57;6.60;;;9.30;99.90;;;;;;5062716;28;20029;-63
2024/01/30 08:32:23;;;;;;;14.73;6.32;;;9.30;99.90;;;;;;5061035;28;20409;-61
2024/01/30 08:34:49;;;;;;;15.25;6.05;;;9.40;99.90;;;;;;5063568;28;20012;-61
2024/01/30 08:37:16;;;;;;;11.77;5.57;;;9.50;99.90;;;;;;5057261;28;20036;-61
2024/01/30 08:39:43;;;;;;;14.13;5.90;;;9.40;99.90;;;;;;5056950;28;20025;-62
2024/01/30 08:42:08;;;;;;;13.98;5.43;;;9.50;99.90;;;;;;5057710;28;20025;-62
2024/01/30 08:44:34;;;;;;;12.35;5.15;;;9.50;99.90;;;;;;5059607;28;20369;-62
2024/01/30 08:46:59;;;;;;;12.40;4.20;;;9.60;99.90;;;;;;5061030;28;20025;-62
2024/01/30 08:49:25;;;;;;;12.80;5.35;;;9.60;99.90;;;;;;5057944;28;20040;-62
2024/01/30 08:51:50;;;;;;;12.55;5.50;;;9.60;99.90;;;;;;5055767;28;20036;-62
2024/01/30 08:54:17;;;;;;;14.38;5.97;;;9.60;99.90;;;;;;5057367;28;20104;-62
2024/01/30 08:56:42;;;;;;;12.50;5.72;;;9.80;99.90;;;;;;5056833;28;20484;-62
2024/01/30 08:59:08;;;;;;;12.50;5.57;;;9.70;99.90;;;;;;5059028;28;20029;-62
2024/01/30 09:01:34;;;;;;;12.70;5.78;;;9.60;99.90;;;;;;5060778;28;20443;-62
2024/01/30 09:03:59;;;;;;;15.93;6.35;;;9.70;99.90;;;;;;5052363;28;20128;-62
2024/01/30 09:06:27;;;;;;;13.00;6.50;;;9.80;99.90;;;;;;5050550;28;20029;-61
2024/01/30 09:08:53;;;;;;;14.05;5.60;;;9.80;99.90;;;;;;5057670;28;20028;-61
2024/01/30 09:11:19;;;;;;;11.48;5.20;;;9.90;99.90;;;;;;5058365;28;20123;-62
2024/01/30 09:13:45;;;;;;;13.20;5.40;;;9.90;99.90;;;;;;5060231;28;20107;-61
2024/01/30 09:16:10;;;;;;;13.27;5.82;;;10.00;99.90;;;;;;5057395;28;20032;-61
2024/01/30 09:18:36;;;;;;;13.80;5.30;;;10.10;99.90;;;;;;5060186;28;20040;-62
2024/01/30 09:21:01;;;;;;;13.38;5.45;;;10.20;99.90;;;;;;5053128;28;20221;-62
2024/01/30 09:23:28;;;;;;;11.75;5.05;;;10.30;99.90;;;;;;5063623;28;20473;-61
2024/01/30 09:25:53;;;;;;;12.15;5.10;;;10.40;99.90;;;;;;5059923;28;20079;-62
2024/01/30 09:28:19;;;;;;;12.80;5.13;;;10.50;99.90;;;;;;5059249;28;20024;-62
2024/01/30 09:30:45;;;;;;;11.23;5.15;;;10.60;99.90;;;;;;5057920;28;20477;-62
2024/01/30 09:33:10;;;;;;;13.70;5.05;;;10.70;99.90;;;;;;5057355;28;20028;-62
2024/01/30 09:35:36;;;;;;;14.63;6.55;;;10.70;99.90;;;;;;5056243;28;20056;-62
2024/01/30 09:38:02;;;;;;;11.65;5.15;;;10.80;99.90;;;;;;5056729;28;20025;-62
2024/01/30 09:40:28;;;;;;;12.18;5.13;;;10.90;99.90;;;;;;5059659;28;20032;-61
2024/01/30 09:42:54;;;;;;;12.20;4.85;;;10.90;99.90;;;;;;5057185;28;20025;-62
2024/01/30 09:45:23;;;;;;;13.23;4.85;;;11.10;99.90;;;;;;5061281;28;20032;-63
2024/01/30 09:47:49;;;;;;;13.35;5.00;;;11.10;99.90;;;;;;5060837;28;20058;-62
2024/01/30 09:50:15;;;;;;;9.88;4.63;;;11.20;99.90;;;;;;5054934;28;20029;-62
2024/01/30 09:52:43;;;;;;;11.65;4.88;;;11.30;99.90;;;;;;5055871;28;20613;-62
2024/01/30 09:55:09;;;;;;;13.32;5.07;;;11.40;99.90;;;;;;5057172;28;20036;-62
2024/01/30 09:57:35;;;;;;;11.57;4.60;;;11.50;99.90;;;;;;5063320;28;20029;-62
2024/01/30 10:00:01;;;;;;;12.35;5.47;;;11.60;99.90;;;;;;5061042;28;20025;-62
2024/01/30 10:02:27;;;;;;;11.40;4.65;;;11.60;99.90;;;;;;5064320;28;20472;-62
2024/01/30 10:04:52;;;;;;;12.50;4.93;;;11.60;99.90;;;;;;5057351;28;20032;-62
2024/01/30 10:07:19;;;;;;;10.63;4.60;;;11.60;99.90;;;;;;5062485;28;20025;-62
2024/01/30 10:09:45;;;;;;;12.07;4.50;;;11.50;99.90;;;;;;5063112;28;20464;-61
2024/01/30 10:12:11;;;;;;;9.70;3.60;;;11.60;99.90;;;;;;5061010;28;20404;-62
2024/01/30 10:14:40;;;;;;;9.63;4.40;;;11.60;99.90;;;;;;5063208;28;20024;-62
2024/01/30 10:17:11;;;;;;;11.85;4.68;;;11.70;99.90;;;;;;5060608;28;20029;-61
2024/01/30 10:19:41;;;;;;;10.18;4.38;;;11.80;99.90;;;;;;5059218;28;20112;-62
2024/01/30 10:22:07;;;;;;;9.65;3.78;;;12.10;99.90;;;;;;5060788;28;20055;-62
2024/01/30 10:24:36;;;;;;;13.25;4.78;;;12.10;99.90;;;;;;5056377;28;20509;-62
2024/01/30 10:27:01;;;;;;;11.57;4.43;;;12.10;99.90;;;;;;5062252;28;20502;-62
2024/01/30 10:29:28;;;;;;;10.85;4.38;;;12.10;99.90;;;;;;5062995;28;20020;-63
2024/01/30 10:32:01;;;;;;;11.07;4.30;;;12.00;99.90;;;;;;5063624;28;20044;-63
2024/01/30 10:34:27;;;;;;;11.80;4.40;;;12.00;99.90;;;;;;5059793;28;20025;-62
2024/01/30 10:37:17;;;;;;;12.48;4.68;;;12.00;99.90;;;;;;5060050;28;20051;-62
2024/01/30 10:39:45;;;;;;;11.70;4.80;;;12.20;99.90;;;;;;5058421;28;20112;-63
2024/01/30 10:42:17;;;;;;;14.55;4.20;;;12.30;99.90;;;;;;5064120;28;20108;-62
2024/01/30 10:45:09;;;;;;;10.00;4.55;;;12.60;99.90;;;;;;5063155;28;20047;-62
2024/01/30 10:47:40;;;;;;;14.65;5.38;;;13.30;99.90;;;;;;5061393;28;20021;-63
2024/01/30 10:50:07;;;;;;;10.55;4.20;;;14.10;99.90;;;;;;5057188;28;20174;-63
2024/01/30 10:52:33;;;;;;;11.40;4.60;;;14.60;99.90;;;;;;5062252;28;20476;-63
2024/01/30 10:54:59;;;;;;;10.55;4.25;;;14.50;99.90;;;;;;5060175;28;20124;-63
2024/01/30 10:57:26;;;;;;;9.77;3.67;;;14.00;99.90;;;;;;5059524;28;20154;-63
2024/01/30 10:59:56;;;;;;;14.32;4.80;;;13.60;99.90;;;;;;5057696;28;20421;-63
2024/01/30 11:02:23;;;;;;;10.23;4.60;;;13.30;99.90;;;;;;5061124;28;20025;-63
2024/01/30 11:04:49;;;;;;;9.15;3.47;;;13.10;99.90;;;;;;5061703;28;20024;-62
2024/01/30 11:07:20;;;;;;;11.45;4.60;;;13.30;99.90;;;;;;5057744;28;20036;-62
2024/01/30 11:09:51;;;;;;;11.75;4.57;;;13.30;99.90;;;;;;5062528;28;20056;-63
2024/01/30 11:12:21;;;;;;;;;;;13.40;99.90;;;;;;5063595;28;20457;-63
2024/01/30 11:14:46;;;;;;;10.90;4.57;;;13.60;99.90;;;;;;5062045;28;20398;-62
2024/01/30 11:17:12;;;;;;;11.05;4.30;;;13.90;99.90;;;;;;5061776;28;20119;-63
2024/01/30 11:19:38;;;;;;;10.38;4.47;;;14.30;99.90;;;;;;5059466;28;20202;-63
2024/01/30 11:22:06;;;;;;;9.73;4.10;;;14.70;99.90;;;;;;5061080;28;20480;-62
2024/01/30 11:24:41;;;;;;;9.75;4.28;;;14.70;99.90;;;;;;5060751;28;20372;-63
2024/01/30 11:27:10;;;;;;;12.75;3.90;;;14.80;99.90;;;;;;5061595;28;20025;-62
2024/01/30 11:29:36;;;;;;;12.93;4.82;;;14.90;99.90;;;;;;5062843;28;20029;-62
2024/01/30 11:32:02;;;;;;;11.05;5.20;;;15.10;99.90;;;;;;5066122;28;20453;-63
2024/01/30 11:34:28;;;;;;;11.23;4.93;;;15.50;99.90;;;;;;5059292;28;20081;-62
2024/01/30 11:37:01;;;;;;;13.00;4.93;;;15.90;99.90;;;;;;5061230;28;20089;-63
2024/01/30 11:39:29;;;;;;;12.30;5.05;;;16.00;99.90;;;;;;5058005;28;20186;-63
2024/01/30 11:41:55;;;;;;;10.90;4.30;;;15.90;99.90;;;;;;5056612;28;20021;-62
2024/01/30 11:44:21;;;;;;;13.10;4.25;;;15.70;99.90;;;;;;5056800;28;20507;-62
2024/01/30 11:46:48;;;;;;;11.30;4.55;;;15.70;99.90;;;;;;5058575;28;20021;-63
2024/01/30 11:49:14;;;;;;;12.18;4.07;;;15.50;99.90;;;;;;5059882;28;20496;-62
2024/01/30 11:51:40;;;;;;;10.65;4.93;;;15.60;99.90;;;;;;5056533;28;20044;-63
2024/01/30 11:54:07;;;;;;;12.00;4.95;;;15.80;99.90;;;;;;5057635;28;20033;-62
2024/01/30 11:56:33;;;;;;;9.35;3.30;;;15.70;99.90;;;;;;5059726;28;20165;-63
2024/01/30 11:59:00;;;;;;;11.52;4.78;;;15.10;99.90;;;;;;5061009;28;20099;-64
2024/01/30 12:01:26;;;;;;;13.32;4.00;;;14.80;99.90;;;;;;5059687;28;20028;-63
2024/01/30 12:03:52;;;;;;;12.75;4.60;;;14.70;99.90;;;;;;5057279;28;20052;-64
2024/01/30 12:06:18;;;;;;;10.73;4.05;;;14.60;99.90;;;;;;5061270;28;20063;-63
2024/01/30 12:08:58;;;;;;;11.70;4.13;;;14.30;99.90;;;;;;5059788;28;20528;-63
2024/01/30 12:11:24;;;;;;;13.13;4.40;;;13.90;99.90;;;;;;5058747;28;20468;-64
2024/01/30 12:13:51;;;;;;;10.73;4.18;;;13.60;99.90;;;;;;5061415;28;20037;-64
2024/01/30 12:16:17;;;;;;;11.25;3.53;;;13.50;99.90;;;;;;5059792;28;20087;-64
2024/01/30 12:18:42;;;;;;;17.25;4.70;;;13.40;99.90;;;;;;5059243;28;20101;-63
2024/01/30 12:21:08;;;;;;;15.20;5.05;;;13.40;99.90;;;;;;5056869;28;20032;-64
2024/01/30 12:23:35;;;;;;;13.00;4.63;;;13.40;99.90;;;;;;5057827;28;20025;-63
2024/01/30 12:26:03;;;;;;;10.23;4.32;;;13.40;99.90;;;;;;5059275;28;20056;-63
2024/01/30 12:28:29;;;;;;;13.73;5.25;;;13.50;99.90;;;;;;5056158;28;20029;-64
2024/01/30 12:31:03;;;;;;;14.30;4.43;;;13.50;99.90;;;;;;5053653;28;20384;-64
2024/01/30 12:33:29;;;;;;;15.88;6.63;;;13.50;99.90;;;;;;5060168;28;20100;-64
2024/01/30 12:35:56;;;;;;;11.27;4.82;;;13.40;99.90;;;;;;5057926;28;20340;-61
2024/01/30 12:38:23;;;;;;;18.10;5.72;;;13.20;99.90;;;;;;5057364;28;20027;-63
2024/01/30 12:40:49;;;;;;;18.52;5.05;;;13.00;99.90;;;;;;5057918;28;20029;-63